sensor_id;sensor_type;location;lat;lon;timestamp;temperature;humidity
15916;DHT22;8057;47.830;-3.870;2024-02-23T00:01:16;9.00;99.90
15916;DHT22;8057;47.830;-3.870;2024-02-23T00:05:25;9.00;99.90
15916;DHT22;8057;47.830;-3.870;2024-02-23T00:09:35;8.90;99.90
15916;DHT22;8057;47.830;-3.870;2024-02-23T00:13:44;8.90;99.90
15916;DHT22;8057;47.830;-3.870;2024-02-23T00:17:53;8.90;99.90
15916;DHT22;8057;47.830;-3.870;2024-02-23T00:22:02;8.90;99.90
15916;DHT22;8057;47.830;-3.870;2024-02-23T00:26:16;9.00;99.90
15916;DHT22;8057;47.830;-3.870;2024-02-23T00:30:25;9.00;99.90
15916;DHT22;8057;47.830;-3.870;2024-02-23T00:34:34;9.00;99.90
15916;DHT22;8057;47.830;-3.870;2024-02-23T00:38:44;8.60;99.90
15916;DHT22;8057;47.830;-3.870;2024-02-23T00:42:55;8.40;99.90
15916;DHT22;8057;47.830;-3.870;2024-02-23T00:47:04;8.30;99.90
15916;DHT22;8057;47.830;-3.870;2024-02-23T00:51:13;8.30;99.90
15916;DHT22;8057;47.830;-3.870;2024-02-23T00:55:22;8.30;99.90
15916;DHT22;8057;47.830;-3.870;2024-02-23T00:59:34;8.30;99.90
15916;DHT22;8057;47.830;-3.870;2024-02-23T01:03:43;8.20;99.90
15916;DHT22;8057;47.830;-3.870;2024-02-23T01:07:52;8.10;99.90
15916;DHT22;8057;47.830;-3.870;2024-02-23T01:12:01;8.10;99.90
15916;DHT22;8057;47.830;-3.870;2024-02-23T01:16:12;8.20;99.90
15916;DHT22;8057;47.830;-3.870;2024-02-23T01:20:20;8.20;99.90
15916;DHT22;8057;47.830;-3.870;2024-02-23T01:24:29;8.30;99.90
15916;DHT22;8057;47.830;-3.870;2024-02-23T01:28:38;8.30;99.90
15916;DHT22;8057;47.830;-3.870;2024-02-23T01:32:49;8.40;99.90
15916;DHT22;8057;47.830;-3.870;2024-02-23T01:36:58;8.50;99.90
15916;DHT22;8057;47.830;-3.870;2024-02-23T01:41:07;8.50;99.90
15916;DHT22;8057;47.830;-3.870;2024-02-23T01:45:16;8.50;99.90
15916;DHT22;8057;47.830;-3.870;2024-02-23T01:49:26;8.50;99.90
15916;DHT22;8057;47.830;-3.870;2024-02-23T01:53:40;8.50;99.90
15916;DHT22;8057;47.830;-3.870;2024-02-23T01:57:49;8.60;99.90
15916;DHT22;8057;47.830;-3.870;2024-02-23T02:01:58;8.60;99.90
15916;DHT22;8057;47.830;-3.870;2024-02-23T02:06:09;8.70;99.90
15916;DHT22;8057;47.830;-3.870;2024-02-23T02:10:19;8.70;99.90
15916;DHT22;8057;47.830;-3.870;2024-02-23T02:14:28;8.70;99.90
15916;DHT22;8057;47.830;-3.870;2024-02-23T02:18:39;8.60;99.90
15916;DHT22;8057;47.830;-3.870;2024-02-23T02:22:49;8.60;99.90
15916;DHT22;8057;47.830;-3.870;2024-02-23T02:26:58;8.70;99.90
15916;DHT22;8057;47.830;-3.870;2024-02-23T02:31:07;8.80;99.90
15916;DHT22;8057;47.830;-3.870;2024-02-23T02:35:16;8.50;99.90
15916;DHT22;8057;47.830;-3.870;2024-02-23T02:39:27;7.90;99.90
15916;DHT22;8057;47.830;-3.870;2024-02-23T02:43:36;7.50;99.90
15916;DHT22;8057;47.830;-3.870;2024-02-23T02:47:45;7.40;99.90
15916;DHT22;8057;47.830;-3.870;2024-02-23T02:51:54;7.30;99.90
15916;DHT22;8057;47.830;-3.870;2024-02-23T02:56:07;7.20;99.90
15916;DHT22;8057;47.830;-3.870;2024-02-23T03:00:16;7.20;99.90
15916;DHT22;8057;47.830;-3.870;2024-02-23T03:04:25;7.20;99.90
15916;DHT22;8057;47.830;-3.870;2024-02-23T03:08:34;7.20;99.90
15916;DHT22;8057;47.830;-3.870;2024-02-23T03:12:45;7.20;99.90
15916;DHT22;8057;47.830;-3.870;2024-02-23T03:16:53;7.40;99.90
15916;DHT22;8057;47.830;-3.870;2024-02-23T03:21:03;7.40;99.90
15916;DHT22;8057;47.830;-3.870;2024-02-23T03:25:12;7.40;99.90
15916;DHT22;8057;47.830;-3.870;2024-02-23T03:29:23;7.40;99.90
15916;DHT22;8057;47.830;-3.870;2024-02-23T03:33:32;7.50;99.90
15916;DHT22;8057;47.830;-3.870;2024-02-23T03:37:41;7.60;99.90
15916;DHT22;8057;47.830;-3.870;2024-02-23T03:41:50;7.70;99.90
15916;DHT22;8057;47.830;-3.870;2024-02-23T03:46:00;7.70;99.90
15916;DHT22;8057;47.830;-3.870;2024-02-23T03:50:09;7.70;99.90
15916;DHT22;8057;47.830;-3.870;2024-02-23T03:54:18;7.70;99.90
15916;DHT22;8057;47.830;-3.870;2024-02-23T03:58:27;7.60;99.90
15916;DHT22;8057;47.830;-3.870;2024-02-23T04:02:38;7.60;99.90
15916;DHT22;8057;47.830;-3.870;2024-02-23T04:06:47;7.60;99.90
15916;DHT22;8057;47.830;-3.870;2024-02-23T04:10:56;7.70;99.90
15916;DHT22;8057;47.830;-3.870;2024-02-23T04:15:06;7.70;99.90
15916;DHT22;8057;47.830;-3.870;2024-02-23T04:19:16;7.80;99.90
15916;DHT22;8057;47.830;-3.870;2024-02-23T04:23:25;7.90;99.90
15916;DHT22;8057;47.830;-3.870;2024-02-23T04:27:34;7.90;99.90
15916;DHT22;8057;47.830;-3.870;2024-02-23T04:31:43;8.00;99.90
15916;DHT22;8057;47.830;-3.870;2024-02-23T04:35:53;8.10;99.90
15916;DHT22;8057;47.830;-3.870;2024-02-23T04:40:03;8.00;99.90
15916;DHT22;8057;47.830;-3.870;2024-02-23T04:44:13;7.90;99.90
15916;DHT22;8057;47.830;-3.870;2024-02-23T04:48:22;7.90;99.90
15916;DHT22;8057;47.830;-3.870;2024-02-23T04:52:33;7.90;99.90
15916;DHT22;8057;47.830;-3.870;2024-02-23T04:56:42;8.00;99.90
15916;DHT22;8057;47.830;-3.870;2024-02-23T05:00:51;8.00;99.90
15916;DHT22;8057;47.830;-3.870;2024-02-23T05:05:00;8.00;99.90
15916;DHT22;8057;47.830;-3.870;2024-02-23T05:09:10;8.00;99.90
15916;DHT22;8057;47.830;-3.870;2024-02-23T05:13:19;8.10;99.90
15916;DHT22;8057;47.830;-3.870;2024-02-23T05:17:28;8.20;99.90
15916;DHT22;8057;47.830;-3.870;2024-02-23T05:21:37;8.10;99.90
15916;DHT22;8057;47.830;-3.870;2024-02-23T05:25:48;8.20;99.90
15916;DHT22;8057;47.830;-3.870;2024-02-23T05:29:57;8.20;99.90
15916;DHT22;8057;47.830;-3.870;2024-02-23T05:34:06;8.10;99.90
15916;DHT22;8057;47.830;-3.870;2024-02-23T05:38:15;7.90;99.90
15916;DHT22;8057;47.830;-3.870;2024-02-23T05:42:25;7.60;99.90
15916;DHT22;8057;47.830;-3.870;2024-02-23T05:46:35;7.40;99.90
15916;DHT22;8057;47.830;-3.870;2024-02-23T05:50:44;7.20;99.90
15916;DHT22;8057;47.830;-3.870;2024-02-23T05:54:53;7.20;99.90
15916;DHT22;8057;47.830;-3.870;2024-02-23T05:59:04;7.10;99.90
15916;DHT22;8057;47.830;-3.870;2024-02-23T06:03:14;7.10;99.90
15916;DHT22;8057;47.830;-3.870;2024-02-23T06:07:22;7.00;99.90
15916;DHT22;8057;47.830;-3.870;2024-02-23T06:11:36;6.90;99.90
15916;DHT22;8057;47.830;-3.870;2024-02-23T06:15:47;6.90;99.90
15916;DHT22;8057;47.830;-3.870;2024-02-23T06:19:56;6.90;99.90
15916;DHT22;8057;47.830;-3.870;2024-02-23T06:24:06;6.80;99.90
15916;DHT22;8057;47.830;-3.870;2024-02-23T06:28:16;6.80;99.90
15916;DHT22;8057;47.830;-3.870;2024-02-23T06:32:26;6.70;99.90
15916;DHT22;8057;47.830;-3.870;2024-02-23T06:36:36;6.80;99.90
15916;DHT22;8057;47.830;-3.870;2024-02-23T06:40:45;6.90;99.90
15916;DHT22;8057;47.830;-3.870;2024-02-23T06:44:58;7.00;99.90
15916;DHT22;8057;47.830;-3.870;2024-02-23T06:49:10;7.10;99.90
15916;DHT22;8057;47.830;-3.870;2024-02-23T06:53:19;7.20;99.90
15916;DHT22;8057;47.830;-3.870;2024-02-23T06:57:27;7.20;99.90
15916;DHT22;8057;47.830;-3.870;2024-02-23T07:01:48;7.20;99.90
15916;DHT22;8057;47.830;-3.870;2024-02-23T07:05:58;7.20;99.90
15916;DHT22;8057;47.830;-3.870;2024-02-23T07:10:09;7.20;99.90
15916;DHT22;8057;47.830;-3.870;2024-02-23T07:14:18;7.20;99.90
15916;DHT22;8057;47.830;-3.870;2024-02-23T07:18:27;7.40;99.90
15916;DHT22;8057;47.830;-3.870;2024-02-23T07:22:38;7.50;99.90
15916;DHT22;8057;47.830;-3.870;2024-02-23T07:26:47;7.70;99.90
15916;DHT22;8057;47.830;-3.870;2024-02-23T07:30:56;7.70;99.90
15916;DHT22;8057;47.830;-3.870;2024-02-23T07:35:05;7.60;99.90
15916;DHT22;8057;47.830;-3.870;2024-02-23T07:39:15;7.50;99.90
15916;DHT22;8057;47.830;-3.870;2024-02-23T07:43:24;7.30;99.90
15916;DHT22;8057;47.830;-3.870;2024-02-23T07:47:35;7.30;99.90
15916;DHT22;8057;47.830;-3.870;2024-02-23T07:51:45;7.20;99.90
15916;DHT22;8057;47.830;-3.870;2024-02-23T07:55:55;7.20;99.90
15916;DHT22;8057;47.830;-3.870;2024-02-23T08:00:07;7.30;99.90
15916;DHT22;8057;47.830;-3.870;2024-02-23T08:04:17;7.30;99.90
15916;DHT22;8057;47.830;-3.870;2024-02-23T08:08:26;7.30;99.90
15916;DHT22;8057;47.830;-3.870;2024-02-23T08:12:37;7.40;99.90
15916;DHT22;8057;47.830;-3.870;2024-02-23T08:16:49;7.30;99.90
15916;DHT22;8057;47.830;-3.870;2024-02-23T08:20:58;7.30;99.90
15916;DHT22;8057;47.830;-3.870;2024-02-23T08:25:09;7.20;99.90
15916;DHT22;8057;47.830;-3.870;2024-02-23T08:29:23;7.30;99.90
15916;DHT22;8057;47.830;-3.870;2024-02-23T08:33:32;7.40;99.90
15916;DHT22;8057;47.830;-3.870;2024-02-23T08:37:41;7.40;99.90
15916;DHT22;8057;47.830;-3.870;2024-02-23T08:41:51;7.50;99.90
15916;DHT22;8057;47.830;-3.870;2024-02-23T08:46:02;7.50;99.90
15916;DHT22;8057;47.830;-3.870;2024-02-23T08:50:16;7.60;99.90
15916;DHT22;8057;47.830;-3.870;2024-02-23T08:54:25;7.70;99.90
15916;DHT22;8057;47.830;-3.870;2024-02-23T08:58:35;7.80;99.90
15916;DHT22;8057;47.830;-3.870;2024-02-23T09:02:46;8.10;99.90
15916;DHT22;8057;47.830;-3.870;2024-02-23T09:06:56;8.50;99.90
15916;DHT22;8057;47.830;-3.870;2024-02-23T09:11:05;8.70;99.90
15916;DHT22;8057;47.830;-3.870;2024-02-23T09:15:14;8.60;99.90
15916;DHT22;8057;47.830;-3.870;2024-02-23T09:19:25;8.50;99.90
15916;DHT22;8057;47.830;-3.870;2024-02-23T09:23:34;8.40;99.90
15916;DHT22;8057;47.830;-3.870;2024-02-23T09:27:44;8.30;99.90
15916;DHT22;8057;47.830;-3.870;2024-02-23T09:31:53;8.10;99.90
15916;DHT22;8057;47.830;-3.870;2024-02-23T09:36:04;8.00;99.90
15916;DHT22;8057;47.830;-3.870;2024-02-23T09:40:14;8.00;99.90
15916;DHT22;8057;47.830;-3.870;2024-02-23T09:44:23;8.20;99.90
15916;DHT22;8057;47.830;-3.870;2024-02-23T09:48:35;8.70;99.90
15916;DHT22;8057;47.830;-3.870;2024-02-23T09:52:48;9.20;99.90
15916;DHT22;8057;47.830;-3.870;2024-02-23T09:56:58;9.50;99.90
15916;DHT22;8057;47.830;-3.870;2024-02-23T10:01:08;9.70;99.90
15916;DHT22;8057;47.830;-3.870;2024-02-23T10:05:19;9.50;99.90
15916;DHT22;8057;47.830;-3.870;2024-02-23T10:09:33;9.20;99.90
15916;DHT22;8057;47.830;-3.870;2024-02-23T10:13:42;9.10;99.90
15916;DHT22;8057;47.830;-3.870;2024-02-23T10:17:51;9.00;99.90
15916;DHT22;8057;47.830;-3.870;2024-02-23T10:22:01;8.90;99.90
15916;DHT22;8057;47.830;-3.870;2024-02-23T10:26:12;8.80;99.90
15916;DHT22;8057;47.830;-3.870;2024-02-23T10:30:27;8.90;99.90
15916;DHT22;8057;47.830;-3.870;2024-02-23T10:34:37;9.20;99.90
15916;DHT22;8057;47.830;-3.870;2024-02-23T10:38:54;9.60;99.90
15916;DHT22;8057;47.830;-3.870;2024-02-23T10:43:12;10.10;99.90
15916;DHT22;8057;47.830;-3.870;2024-02-23T10:47:22;10.60;99.90
15916;DHT22;8057;47.830;-3.870;2024-02-23T10:51:31;10.80;99.90
15916;DHT22;8057;47.830;-3.870;2024-02-23T10:55:42;11.20;99.90
15916;DHT22;8057;47.830;-3.870;2024-02-23T10:59:54;11.30;99.90
15916;DHT22;8057;47.830;-3.870;2024-02-23T11:04:03;11.20;99.90
15916;DHT22;8057;47.830;-3.870;2024-02-23T11:08:13;11.20;99.90
15916;DHT22;8057;47.830;-3.870;2024-02-23T11:12:23;11.40;99.90
15916;DHT22;8057;47.830;-3.870;2024-02-23T11:16:38;11.70;99.90
15916;DHT22;8057;47.830;-3.870;2024-02-23T11:20:54;11.60;99.90
15916;DHT22;8057;47.830;-3.870;2024-02-23T11:25:04;11.40;99.90
15916;DHT22;8057;47.830;-3.870;2024-02-23T11:29:14;11.40;99.90
15916;DHT22;8057;47.830;-3.870;2024-02-23T11:33:27;11.40;99.90
15916;DHT22;8057;47.830;-3.870;2024-02-23T11:37:47;11.50;99.90
15916;DHT22;8057;47.830;-3.870;2024-02-23T11:41:57;11.40;99.90
15916;DHT22;8057;47.830;-3.870;2024-02-23T11:46:07;11.50;99.90
15916;DHT22;8057;47.830;-3.870;2024-02-23T11:50:18;11.60;99.90
15916;DHT22;8057;47.830;-3.870;2024-02-23T11:54:28;11.70;99.90
15916;DHT22;8057;47.830;-3.870;2024-02-23T11:58:39;11.60;99.90
15916;DHT22;8057;47.830;-3.870;2024-02-23T12:02:48;11.50;99.90
15916;DHT22;8057;47.830;-3.870;2024-02-23T12:06:59;11.70;99.90
15916;DHT22;8057;47.830;-3.870;2024-02-23T12:11:09;11.80;99.90
15916;DHT22;8057;47.830;-3.870;2024-02-23T12:15:21;11.50;99.90
15916;DHT22;8057;47.830;-3.870;2024-02-23T12:19:30;11.20;99.90
15916;DHT22;8057;47.830;-3.870;2024-02-23T12:23:44;10.90;99.90
15916;DHT22;8057;47.830;-3.870;2024-02-23T12:27:55;10.60;99.90
15916;DHT22;8057;47.830;-3.870;2024-02-23T12:32:05;10.40;99.90
15916;DHT22;8057;47.830;-3.870;2024-02-23T12:36:15;10.10;99.90
15916;DHT22;8057;47.830;-3.870;2024-02-23T12:40:26;9.80;99.90
15916;DHT22;8057;47.830;-3.870;2024-02-23T12:44:35;10.10;99.90
15916;DHT22;8057;47.830;-3.870;2024-02-23T12:48:44;10.90;99.90
15916;DHT22;8057;47.830;-3.870;2024-02-23T12:52:53;10.40;99.90
15916;DHT22;8057;47.830;-3.870;2024-02-23T12:57:03;9.50;99.90
15916;DHT22;8057;47.830;-3.870;2024-02-23T13:01:12;8.80;99.90
15916;DHT22;8057;47.830;-3.870;2024-02-23T13:05:22;8.50;99.90
15916;DHT22;8057;47.830;-3.870;2024-02-23T13:09:31;8.50;99.90
15916;DHT22;8057;47.830;-3.870;2024-02-23T13:13:41;8.60;99.90
15916;DHT22;8057;47.830;-3.870;2024-02-23T13:17:50;8.60;99.90
15916;DHT22;8057;47.830;-3.870;2024-02-23T13:21:59;8.60;99.90
15916;DHT22;8057;47.830;-3.870;2024-02-23T13:26:09;8.50;99.90
15916;DHT22;8057;47.830;-3.870;2024-02-23T13:30:21;8.40;99.90
15916;DHT22;8057;47.830;-3.870;2024-02-23T13:34:30;8.50;99.90
15916;DHT22;8057;47.830;-3.870;2024-02-23T13:38:39;8.80;99.90
15916;DHT22;8057;47.830;-3.870;2024-02-23T13:42:49;9.40;99.90
15916;DHT22;8057;47.830;-3.870;2024-02-23T13:47:01;9.70;99.90
15916;DHT22;8057;47.830;-3.870;2024-02-23T13:51:10;9.70;99.90
15916;DHT22;8057;47.830;-3.870;2024-02-23T13:55:19;9.30;99.90
15916;DHT22;8057;47.830;-3.870;2024-02-23T13:59:29;8.80;99.90
15916;DHT22;8057;47.830;-3.870;2024-02-23T14:03:39;8.30;99.90
15916;DHT22;8057;47.830;-3.870;2024-02-23T14:07:48;7.90;99.90
15916;DHT22;8057;47.830;-3.870;2024-02-23T14:11:57;7.80;99.90
15916;DHT22;8057;47.830;-3.870;2024-02-23T14:16:06;7.70;99.90
15916;DHT22;8057;47.830;-3.870;2024-02-23T14:20:17;7.60;99.90
15916;DHT22;8057;47.830;-3.870;2024-02-23T14:24:26;7.60;99.90
15916;DHT22;8057;47.830;-3.870;2024-02-23T14:28:35;7.60;99.90
15916;DHT22;8057;47.830;-3.870;2024-02-23T14:32:44;7.60;99.90
15916;DHT22;8057;47.830;-3.870;2024-02-23T14:36:55;7.50;99.90
15916;DHT22;8057;47.830;-3.870;2024-02-23T14:41:04;7.50;99.90
15916;DHT22;8057;47.830;-3.870;2024-02-23T14:45:16;7.50;99.90
15916;DHT22;8057;47.830;-3.870;2024-02-23T14:49:25;7.40;99.90
15916;DHT22;8057;47.830;-3.870;2024-02-23T14:53:35;7.30;99.90
15916;DHT22;8057;47.830;-3.870;2024-02-23T14:57:44;6.90;99.90
15916;DHT22;8057;47.830;-3.870;2024-02-23T15:01:57;6.70;99.90
15916;DHT22;8057;47.830;-3.870;2024-02-23T15:06:06;6.60;99.90
15916;DHT22;8057;47.830;-3.870;2024-02-23T15:10:18;6.60;99.90
15916;DHT22;8057;47.830;-3.870;2024-02-23T15:14:27;6.30;99.90
15916;DHT22;8057;47.830;-3.870;2024-02-23T15:18:36;6.20;99.90
15916;DHT22;8057;47.830;-3.870;2024-02-23T15:22:45;6.20;99.90
15916;DHT22;8057;47.830;-3.870;2024-02-23T15:26:58;6.30;99.90
15916;DHT22;8057;47.830;-3.870;2024-02-23T15:31:08;6.30;99.90
15916;DHT22;8057;47.830;-3.870;2024-02-23T15:35:17;6.30;99.90
15916;DHT22;8057;47.830;-3.870;2024-02-23T15:39:26;6.30;99.90
15916;DHT22;8057;47.830;-3.870;2024-02-23T15:43:37;6.50;99.90
15916;DHT22;8057;47.830;-3.870;2024-02-23T15:47:45;6.70;99.90
15916;DHT22;8057;47.830;-3.870;2024-02-23T15:51:55;6.90;99.90
15916;DHT22;8057;47.830;-3.870;2024-02-23T15:56:07;7.40;99.90
15916;DHT22;8057;47.830;-3.870;2024-02-23T16:00:19;7.70;99.90
15916;DHT22;8057;47.830;-3.870;2024-02-23T16:04:28;7.90;99.90
15916;DHT22;8057;47.830;-3.870;2024-02-23T16:08:40;7.90;99.90
15916;DHT22;8057;47.830;-3.870;2024-02-23T16:12:51;7.70;99.90
15916;DHT22;8057;47.830;-3.870;2024-02-23T16:17:01;7.70;99.90
15916;DHT22;8057;47.830;-3.870;2024-02-23T16:21:11;7.60;99.90
15916;DHT22;8057;47.830;-3.870;2024-02-23T16:25:23;7.40;99.90
15916;DHT22;8057;47.830;-3.870;2024-02-23T16:29:32;7.30;99.90
15916;DHT22;8057;47.830;-3.870;2024-02-23T16:33:43;7.20;99.90
15916;DHT22;8057;47.830;-3.870;2024-02-23T16:37:52;7.20;99.90
15916;DHT22;8057;47.830;-3.870;2024-02-23T16:42:02;7.20;99.90
15916;DHT22;8057;47.830;-3.870;2024-02-23T16:46:13;7.00;99.90
15916;DHT22;8057;47.830;-3.870;2024-02-23T16:50:23;6.90;99.90
15916;DHT22;8057;47.830;-3.870;2024-02-23T16:54:33;6.80;99.90
15916;DHT22;8057;47.830;-3.870;2024-02-23T16:58:42;6.80;99.90
15916;DHT22;8057;47.830;-3.870;2024-02-23T17:02:51;6.70;99.90
15916;DHT22;8057;47.830;-3.870;2024-02-23T17:07:03;6.70;99.90
15916;DHT22;8057;47.830;-3.870;2024-02-23T17:11:12;6.70;99.90
15916;DHT22;8057;47.830;-3.870;2024-02-23T17:15:22;6.70;99.90
15916;DHT22;8057;47.830;-3.870;2024-02-23T17:19:31;6.70;99.90
15916;DHT22;8057;47.830;-3.870;2024-02-23T17:23:41;6.70;99.90
15916;DHT22;8057;47.830;-3.870;2024-02-23T17:27:50;6.70;99.90
15916;DHT22;8057;47.830;-3.870;2024-02-23T17:31:59;6.60;99.90
15916;DHT22;8057;47.830;-3.870;2024-02-23T17:36:09;6.60;99.90
15916;DHT22;8057;47.830;-3.870;2024-02-23T17:40:19;6.60;99.90
15916;DHT22;8057;47.830;-3.870;2024-02-23T17:44:28;6.60;99.90
15916;DHT22;8057;47.830;-3.870;2024-02-23T17:48:37;6.60;99.90
15916;DHT22;8057;47.830;-3.870;2024-02-23T17:52:46;6.60;99.90
15916;DHT22;8057;47.830;-3.870;2024-02-23T17:56:58;6.70;99.90
15916;DHT22;8057;47.830;-3.870;2024-02-23T18:01:07;6.70;99.90
15916;DHT22;8057;47.830;-3.870;2024-02-23T18:05:16;6.80;99.90
15916;DHT22;8057;47.830;-3.870;2024-02-23T18:09:25;6.80;99.90
15916;DHT22;8057;47.830;-3.870;2024-02-23T18:13:36;6.80;99.90
15916;DHT22;8057;47.830;-3.870;2024-02-23T18:17:47;6.80;99.90
15916;DHT22;8057;47.830;-3.870;2024-02-23T18:21:56;6.90;99.90
15916;DHT22;8057;47.830;-3.870;2024-02-23T18:26:05;6.90;99.90
15916;DHT22;8057;47.830;-3.870;2024-02-23T18:30:16;6.90;99.90
15916;DHT22;8057;47.830;-3.870;2024-02-23T18:34:25;6.90;99.90
15916;DHT22;8057;47.830;-3.870;2024-02-23T18:38:34;7.00;99.90
15916;DHT22;8057;47.830;-3.870;2024-02-23T18:42:44;6.90;99.90
15916;DHT22;8057;47.830;-3.870;2024-02-23T18:46:55;6.90;99.90
15916;DHT22;8057;47.830;-3.870;2024-02-23T18:51:06;6.80;99.90
15916;DHT22;8057;47.830;-3.870;2024-02-23T18:55:15;6.70;99.90
15916;DHT22;8057;47.830;-3.870;2024-02-23T18:59:24;6.70;99.90
15916;DHT22;8057;47.830;-3.870;2024-02-23T19:03:35;6.70;99.90
15916;DHT22;8057;47.830;-3.870;2024-02-23T19:07:44;6.70;99.90
15916;DHT22;8057;47.830;-3.870;2024-02-23T19:11:54;6.80;99.90
15916;DHT22;8057;47.830;-3.870;2024-02-23T19:16:04;6.80;99.90
15916;DHT22;8057;47.830;-3.870;2024-02-23T19:20:21;6.80;99.90
15916;DHT22;8057;47.830;-3.870;2024-02-23T19:24:31;6.80;99.90
15916;DHT22;8057;47.830;-3.870;2024-02-23T19:28:40;6.90;99.90
15916;DHT22;8057;47.830;-3.870;2024-02-23T19:32:49;7.10;99.90
15916;DHT22;8057;47.830;-3.870;2024-02-23T19:37:00;7.10;99.90
15916;DHT22;8057;47.830;-3.870;2024-02-23T19:41:09;6.90;99.90
15916;DHT22;8057;47.830;-3.870;2024-02-23T19:45:20;6.80;99.90
15916;DHT22;8057;47.830;-3.870;2024-02-23T19:49:31;6.70;99.90
15916;DHT22;8057;47.830;-3.870;2024-02-23T19:53:42;6.60;99.90
15916;DHT22;8057;47.830;-3.870;2024-02-23T19:57:53;6.50;99.90
15916;DHT22;8057;47.830;-3.870;2024-02-23T20:02:03;6.30;99.90
15916;DHT22;8057;47.830;-3.870;2024-02-23T20:06:16;6.20;99.90
15916;DHT22;8057;47.830;-3.870;2024-02-23T20:10:26;6.00;99.90
15916;DHT22;8057;47.830;-3.870;2024-02-23T20:14:36;6.00;99.90
15916;DHT22;8057;47.830;-3.870;2024-02-23T20:18:45;6.00;99.90
15916;DHT22;8057;47.830;-3.870;2024-02-23T20:22:54;6.00;99.90
15916;DHT22;8057;47.830;-3.870;2024-02-23T20:27:06;5.90;99.90
15916;DHT22;8057;47.830;-3.870;2024-02-23T20:31:15;5.90;99.90
15916;DHT22;8057;47.830;-3.870;2024-02-23T20:35:25;6.00;99.90
15916;DHT22;8057;47.830;-3.870;2024-02-23T20:39:36;6.00;99.90
15916;DHT22;8057;47.830;-3.870;2024-02-23T20:43:47;6.10;99.90
15916;DHT22;8057;47.830;-3.870;2024-02-23T20:47:56;6.00;99.90
15916;DHT22;8057;47.830;-3.870;2024-02-23T20:52:06;6.00;99.90
15916;DHT22;8057;47.830;-3.870;2024-02-23T20:56:17;5.90;99.90
15916;DHT22;8057;47.830;-3.870;2024-02-23T21:00:29;5.90;99.90
15916;DHT22;8057;47.830;-3.870;2024-02-23T21:04:38;5.70;99.90
15916;DHT22;8057;47.830;-3.870;2024-02-23T21:08:47;5.60;99.90
15916;DHT22;8057;47.830;-3.870;2024-02-23T21:12:59;5.50;99.90
15916;DHT22;8057;47.830;-3.870;2024-02-23T21:17:10;5.60;99.90
15916;DHT22;8057;47.830;-3.870;2024-02-23T21:21:19;5.70;99.90
15916;DHT22;8057;47.830;-3.870;2024-02-23T21:25:28;5.80;99.90
15916;DHT22;8057;47.830;-3.870;2024-02-23T21:29:38;5.80;99.90
15916;DHT22;8057;47.830;-3.870;2024-02-23T21:33:49;5.80;99.90
15916;DHT22;8057;47.830;-3.870;2024-02-23T21:38:01;5.80;99.90
15916;DHT22;8057;47.830;-3.870;2024-02-23T21:42:10;5.70;99.90
15916;DHT22;8057;47.830;-3.870;2024-02-23T21:46:20;5.70;99.90
15916;DHT22;8057;47.830;-3.870;2024-02-23T21:50:31;5.60;99.90
15916;DHT22;8057;47.830;-3.870;2024-02-23T21:54:40;5.60;99.90
15916;DHT22;8057;47.830;-3.870;2024-02-23T21:58:52;5.70;99.90
15916;DHT22;8057;47.830;-3.870;2024-02-23T22:03:04;5.70;99.90
15916;DHT22;8057;47.830;-3.870;2024-02-23T22:07:15;5.70;99.90
15916;DHT22;8057;47.830;-3.870;2024-02-23T22:11:26;5.70;99.90
15916;DHT22;8057;47.830;-3.870;2024-02-23T22:15:40;5.70;99.90
15916;DHT22;8057;47.830;-3.870;2024-02-23T22:19:53;5.60;99.90
15916;DHT22;8057;47.830;-3.870;2024-02-23T22:24:04;5.60;99.90
15916;DHT22;8057;47.830;-3.870;2024-02-23T22:28:14;5.60;99.90
15916;DHT22;8057;47.830;-3.870;2024-02-23T22:32:23;5.60;99.90
15916;DHT22;8057;47.830;-3.870;2024-02-23T22:36:35;5.70;99.90
15916;DHT22;8057;47.830;-3.870;2024-02-23T22:40:46;5.80;99.90
15916;DHT22;8057;47.830;-3.870;2024-02-23T22:44:55;5.90;99.90
15916;DHT22;8057;47.830;-3.870;2024-02-23T22:49:04;6.10;99.90
15916;DHT22;8057;47.830;-3.870;2024-02-23T22:53:14;6.20;99.90
15916;DHT22;8057;47.830;-3.870;2024-02-23T22:57:26;6.40;99.90
15916;DHT22;8057;47.830;-3.870;2024-02-23T23:01:35;6.30;99.90
15916;DHT22;8057;47.830;-3.870;2024-02-23T23:05:45;6.10;99.90
15916;DHT22;8057;47.830;-3.870;2024-02-23T23:09:56;6.10;99.90
15916;DHT22;8057;47.830;-3.870;2024-02-23T23:14:07;6.00;99.90
15916;DHT22;8057;47.830;-3.870;2024-02-23T23:18:17;5.90;99.90
15916;DHT22;8057;47.830;-3.870;2024-02-23T23:22:26;5.90;99.90
15916;DHT22;8057;47.830;-3.870;2024-02-23T23:26:36;5.80;99.90
15916;DHT22;8057;47.830;-3.870;2024-02-23T23:31:05;5.80;99.90
15916;DHT22;8057;47.830;-3.870;2024-02-23T23:35:14;6.10;99.90
15916;DHT22;8057;47.830;-3.870;2024-02-23T23:39:23;6.10;99.90
15916;DHT22;8057;47.830;-3.870;2024-02-23T23:43:32;6.10;99.90
15916;DHT22;8057;47.830;-3.870;2024-02-23T23:47:43;6.10;99.90
15916;DHT22;8057;47.830;-3.870;2024-02-23T23:51:52;6.00;99.90
15916;DHT22;8057;47.830;-3.870;2024-02-23T23:56:10;6.00;99.90
